sensor_id;sensor_type;location;lat;lon;timestamp;temperature;humidity
10905;DHT22;5505;51.450;9.254;2022-12-07T00:00:14;2.20;99.90
10905;DHT22;5505;51.450;9.254;2022-12-07T00:03:01;2.20;99.90
10905;DHT22;5505;51.450;9.254;2022-12-07T00:05:48;2.30;99.90
10905;DHT22;5505;51.450;9.254;2022-12-07T00:08:35;2.30;99.90
10905;DHT22;5505;51.450;9.254;2022-12-07T00:11:24;2.30;99.90
10905;DHT22;5505;51.450;9.254;2022-12-07T00:14:12;2.20;99.90
10905;DHT22;5505;51.450;9.254;2022-12-07T00:16:59;2.20;99.90
10905;DHT22;5505;51.450;9.254;2022-12-07T00:19:46;2.30;99.90
10905;DHT22;5505;51.450;9.254;2022-12-07T00:22:33;2.30;99.90
10905;DHT22;5505;51.450;9.254;2022-12-07T00:25:20;2.30;99.90
10905;DHT22;5505;51.450;9.254;2022-12-07T00:28:08;2.30;99.90
10905;DHT22;5505;51.450;9.254;2022-12-07T00:31:00;2.30;99.90
10905;DHT22;5505;51.450;9.254;2022-12-07T00:33:47;2.30;99.90
10905;DHT22;5505;51.450;9.254;2022-12-07T00:36:34;2.30;99.90
10905;DHT22;5505;51.450;9.254;2022-12-07T00:39:21;2.40;99.90
10905;DHT22;5505;51.450;9.254;2022-12-07T00:42:08;2.40;99.90
10905;DHT22;5505;51.450;9.254;2022-12-07T00:44:56;2.40;99.90
10905;DHT22;5505;51.450;9.254;2022-12-07T00:47:43;2.40;99.90
10905;DHT22;5505;51.450;9.254;2022-12-07T00:50:30;2.40;99.90
10905;DHT22;5505;51.450;9.254;2022-12-07T00:53:17;2.40;99.90
10905;DHT22;5505;51.450;9.254;2022-12-07T00:56:05;2.40;99.90
10905;DHT22;5505;51.450;9.254;2022-12-07T00:58:53;2.40;99.90
10905;DHT22;5505;51.450;9.254;2022-12-07T01:01:42;2.50;99.90
10905;DHT22;5505;51.450;9.254;2022-12-07T01:04:29;2.50;99.90
10905;DHT22;5505;51.450;9.254;2022-12-07T01:07:16;2.60;99.90
10905;DHT22;5505;51.450;9.254;2022-12-07T01:10:03;2.60;99.90
10905;DHT22;5505;51.450;9.254;2022-12-07T01:12:50;2.60;99.90
10905;DHT22;5505;51.450;9.254;2022-12-07T01:15:39;2.70;99.90
10905;DHT22;5505;51.450;9.254;2022-12-07T01:18:28;2.70;99.90
10905;DHT22;5505;51.450;9.254;2022-12-07T01:21:17;2.70;99.90
10905;DHT22;5505;51.450;9.254;2022-12-07T01:24:09;4.80;99.90
10905;DHT22;5505;51.450;9.254;2022-12-07T01:26:56;2.70;99.90
10905;DHT22;5505;51.450;9.254;2022-12-07T01:29:43;2.80;99.90
10905;DHT22;5505;51.450;9.254;2022-12-07T01:32:30;2.80;99.90
10905;DHT22;5505;51.450;9.254;2022-12-07T01:35:18;2.80;99.90
10905;DHT22;5505;51.450;9.254;2022-12-07T01:38:05;2.90;99.90
10905;DHT22;5505;51.450;9.254;2022-12-07T01:40:55;2.90;99.90
10905;DHT22;5505;51.450;9.254;2022-12-07T01:44:13;2.90;99.90
10905;DHT22;5505;51.450;9.254;2022-12-07T01:47:02;3.00;99.90
10905;DHT22;5505;51.450;9.254;2022-12-07T01:49:49;5.40;99.90
10905;DHT22;5505;51.450;9.254;2022-12-07T01:52:38;3.00;99.90
10905;DHT22;5505;51.450;9.254;2022-12-07T01:55:26;3.00;99.90
10905;DHT22;5505;51.450;9.254;2022-12-07T01:58:14;3.00;99.90
10905;DHT22;5505;51.450;9.254;2022-12-07T02:01:01;3.00;99.90
10905;DHT22;5505;51.450;9.254;2022-12-07T02:03:48;3.00;99.90
10905;DHT22;5505;51.450;9.254;2022-12-07T02:06:36;3.00;99.90
10905;DHT22;5505;51.450;9.254;2022-12-07T02:09:25;3.00;99.90
10905;DHT22;5505;51.450;9.254;2022-12-07T02:12:12;3.00;99.90
10905;DHT22;5505;51.450;9.254;2022-12-07T02:14:58;3.00;99.90
10905;DHT22;5505;51.450;9.254;2022-12-07T02:17:52;3.10;99.90
10905;DHT22;5505;51.450;9.254;2022-12-07T02:20:49;3.10;99.90
10905;DHT22;5505;51.450;9.254;2022-12-07T02:24:03;3.10;99.90
10905;DHT22;5505;51.450;9.254;2022-12-07T02:27:33;3.10;99.90
10905;DHT22;5505;51.450;9.254;2022-12-07T02:30:26;3.10;99.90
10905;DHT22;5505;51.450;9.254;2022-12-07T02:33:17;3.20;99.90
10905;DHT22;5505;51.450;9.254;2022-12-07T02:36:08;2.20;99.90
10905;DHT22;5505;51.450;9.254;2022-12-07T02:39:00;3.10;99.90
10905;DHT22;5505;51.450;9.254;2022-12-07T02:41:52;3.20;99.90
10905;DHT22;5505;51.450;9.254;2022-12-07T02:44:41;3.20;99.90
10905;DHT22;5505;51.450;9.254;2022-12-07T02:47:31;3.20;99.90
10905;DHT22;5505;51.450;9.254;2022-12-07T02:50:19;3.20;99.90
10905;DHT22;5505;51.450;9.254;2022-12-07T02:53:28;3.30;99.90
10905;DHT22;5505;51.450;9.254;2022-12-07T02:56:22;3.20;99.90
10905;DHT22;5505;51.450;9.254;2022-12-07T02:59:15;3.30;99.90
10905;DHT22;5505;51.450;9.254;2022-12-07T03:02:11;3.30;99.90
10905;DHT22;5505;51.450;9.254;2022-12-07T03:05:15;3.30;99.90
10905;DHT22;5505;51.450;9.254;2022-12-07T03:08:12;3.30;99.90
10905;DHT22;5505;51.450;9.254;2022-12-07T03:11:03;3.40;99.90
10905;DHT22;5505;51.450;9.254;2022-12-07T03:13:55;3.40;99.90
10905;DHT22;5505;51.450;9.254;2022-12-07T03:16:50;3.40;99.90
10905;DHT22;5505;51.450;9.254;2022-12-07T03:19:40;3.50;99.90
10905;DHT22;5505;51.450;9.254;2022-12-07T03:22:31;3.50;99.90
10905;DHT22;5505;51.450;9.254;2022-12-07T03:25:19;3.50;99.90
10905;DHT22;5505;51.450;9.254;2022-12-07T03:28:07;3.60;99.90
10905;DHT22;5505;51.450;9.254;2022-12-07T03:30:58;3.50;99.90
10905;DHT22;5505;51.450;9.254;2022-12-07T03:33:51;3.50;99.90
10905;DHT22;5505;51.450;9.254;2022-12-07T03:36:43;3.50;99.90
10905;DHT22;5505;51.450;9.254;2022-12-07T03:39:36;3.60;99.90
10905;DHT22;5505;51.450;9.254;2022-12-07T03:42:23;3.50;99.90
10905;DHT22;5505;51.450;9.254;2022-12-07T03:45:11;3.50;99.90
10905;DHT22;5505;51.450;9.254;2022-12-07T03:48:03;3.60;99.90
10905;DHT22;5505;51.450;9.254;2022-12-07T03:50:55;3.50;99.90
10905;DHT22;5505;51.450;9.254;2022-12-07T03:53:48;3.50;99.90
10905;DHT22;5505;51.450;9.254;2022-12-07T03:56:38;3.60;99.90
10905;DHT22;5505;51.450;9.254;2022-12-07T03:59:26;3.60;99.90
10905;DHT22;5505;51.450;9.254;2022-12-07T04:02:15;3.50;99.90
10905;DHT22;5505;51.450;9.254;2022-12-07T04:05:02;3.50;99.90
10905;DHT22;5505;51.450;9.254;2022-12-07T04:07:49;3.50;99.90
10905;DHT22;5505;51.450;9.254;2022-12-07T04:10:36;3.50;99.90
10905;DHT22;5505;51.450;9.254;2022-12-07T04:13:24;3.50;99.90
10905;DHT22;5505;51.450;9.254;2022-12-07T04:16:11;3.50;99.90
10905;DHT22;5505;51.450;9.254;2022-12-07T04:18:58;3.50;99.90
10905;DHT22;5505;51.450;9.254;2022-12-07T04:21:45;3.60;99.90
10905;DHT22;5505;51.450;9.254;2022-12-07T04:24:32;3.60;99.90
10905;DHT22;5505;51.450;9.254;2022-12-07T04:27:19;3.60;99.90
10905;DHT22;5505;51.450;9.254;2022-12-07T04:30:08;3.60;99.90
10905;DHT22;5505;51.450;9.254;2022-12-07T04:32:55;3.60;99.90
10905;DHT22;5505;51.450;9.254;2022-12-07T04:35:42;3.60;99.90
10905;DHT22;5505;51.450;9.254;2022-12-07T04:38:29;3.60;99.90
10905;DHT22;5505;51.450;9.254;2022-12-07T04:41:15;3.60;99.90
10905;DHT22;5505;51.450;9.254;2022-12-07T04:44:03;3.60;99.90
10905;DHT22;5505;51.450;9.254;2022-12-07T04:46:54;3.60;99.90
10905;DHT22;5505;51.450;9.254;2022-12-07T04:49:42;3.60;99.90
10905;DHT22;5505;51.450;9.254;2022-12-07T04:52:29;3.50;99.90
10905;DHT22;5505;51.450;9.254;2022-12-07T04:55:16;3.50;99.90
10905;DHT22;5505;51.450;9.254;2022-12-07T04:58:04;3.60;99.90
10905;DHT22;5505;51.450;9.254;2022-12-07T05:00:53;3.50;99.90
10905;DHT22;5505;51.450;9.254;2022-12-07T05:03:42;3.60;99.90
10905;DHT22;5505;51.450;9.254;2022-12-07T05:06:29;3.60;99.90
10905;DHT22;5505;51.450;9.254;2022-12-07T05:09:15;3.60;99.90
10905;DHT22;5505;51.450;9.254;2022-12-07T05:12:02;3.60;99.90
10905;DHT22;5505;51.450;9.254;2022-12-07T05:14:49;3.60;99.90
10905;DHT22;5505;51.450;9.254;2022-12-07T05:17:36;3.60;99.90
10905;DHT22;5505;51.450;9.254;2022-12-07T05:20:24;3.60;99.90
10905;DHT22;5505;51.450;9.254;2022-12-07T05:23:11;3.60;99.90
10905;DHT22;5505;51.450;9.254;2022-12-07T05:25:58;3.60;99.90
10905;DHT22;5505;51.450;9.254;2022-12-07T05:28:44;3.60;99.90
10905;DHT22;5505;51.450;9.254;2022-12-07T05:31:31;3.60;99.90
10905;DHT22;5505;51.450;9.254;2022-12-07T05:34:19;3.50;99.90
10905;DHT22;5505;51.450;9.254;2022-12-07T05:37:07;3.60;99.90
10905;DHT22;5505;51.450;9.254;2022-12-07T05:39:54;3.60;99.90
10905;DHT22;5505;51.450;9.254;2022-12-07T05:42:41;3.50;99.90
10905;DHT22;5505;51.450;9.254;2022-12-07T05:45:28;3.50;99.90
10905;DHT22;5505;51.450;9.254;2022-12-07T05:48:15;3.60;99.90
10905;DHT22;5505;51.450;9.254;2022-12-07T05:51:01;3.50;99.90
10905;DHT22;5505;51.450;9.254;2022-12-07T05:53:49;3.50;99.90
10905;DHT22;5505;51.450;9.254;2022-12-07T05:56:36;3.50;99.90
10905;DHT22;5505;51.450;9.254;2022-12-07T05:59:23;3.50;99.90
10905;DHT22;5505;51.450;9.254;2022-12-07T06:02:14;5.40;99.90
10905;DHT22;5505;51.450;9.254;2022-12-07T06:05:01;3.50;99.90
10905;DHT22;5505;51.450;9.254;2022-12-07T06:07:48;3.50;99.90
10905;DHT22;5505;51.450;9.254;2022-12-07T06:10:36;3.50;99.90
10905;DHT22;5505;51.450;9.254;2022-12-07T06:13:23;3.50;99.90
10905;DHT22;5505;51.450;9.254;2022-12-07T06:16:08;3.50;99.90
10905;DHT22;5505;51.450;9.254;2022-12-07T06:18:55;3.50;99.90
10905;DHT22;5505;51.450;9.254;2022-12-07T06:21:42;3.50;99.90
10905;DHT22;5505;51.450;9.254;2022-12-07T06:24:29;3.50;99.90
10905;DHT22;5505;51.450;9.254;2022-12-07T06:27:17;3.50;99.90
10905;DHT22;5505;51.450;9.254;2022-12-07T06:30:05;4.70;99.90
10905;DHT22;5505;51.450;9.254;2022-12-07T06:32:53;3.50;99.90
10905;DHT22;5505;51.450;9.254;2022-12-07T06:35:41;3.50;99.90
10905;DHT22;5505;51.450;9.254;2022-12-07T06:38:28;3.40;99.90
10905;DHT22;5505;51.450;9.254;2022-12-07T06:41:14;3.40;99.90
10905;DHT22;5505;51.450;9.254;2022-12-07T06:44:03;3.40;99.90
10905;DHT22;5505;51.450;9.254;2022-12-07T06:46:50;3.40;99.90
10905;DHT22;5505;51.450;9.254;2022-12-07T06:49:37;3.40;99.90
10905;DHT22;5505;51.450;9.254;2022-12-07T06:52:24;3.40;99.90
10905;DHT22;5505;51.450;9.254;2022-12-07T06:55:10;3.40;99.90
10905;DHT22;5505;51.450;9.254;2022-12-07T06:57:57;3.40;99.90
10905;DHT22;5505;51.450;9.254;2022-12-07T07:00:47;3.40;99.90
10905;DHT22;5505;51.450;9.254;2022-12-07T07:03:34;3.40;99.90
10905;DHT22;5505;51.450;9.254;2022-12-07T07:06:21;3.40;99.90
10905;DHT22;5505;51.450;9.254;2022-12-07T07:09:07;3.40;99.90
10905;DHT22;5505;51.450;9.254;2022-12-07T07:11:54;3.40;99.90
10905;DHT22;5505;51.450;9.254;2022-12-07T07:14:41;3.40;99.90
10905;DHT22;5505;51.450;9.254;2022-12-07T07:17:30;3.40;99.90
10905;DHT22;5505;51.450;9.254;2022-12-07T07:20:17;3.40;99.90
10905;DHT22;5505;51.450;9.254;2022-12-07T07:23:04;3.40;99.90
10905;DHT22;5505;51.450;9.254;2022-12-07T07:25:50;3.30;99.90
10905;DHT22;5505;51.450;9.254;2022-12-07T07:28:38;3.30;99.90
10905;DHT22;5505;51.450;9.254;2022-12-07T07:31:25;3.30;99.90
10905;DHT22;5505;51.450;9.254;2022-12-07T07:34:13;3.30;99.90
10905;DHT22;5505;51.450;9.254;2022-12-07T07:36:59;3.30;99.90
10905;DHT22;5505;51.450;9.254;2022-12-07T07:39:46;3.30;99.90
10905;DHT22;5505;51.450;9.254;2022-12-07T07:42:33;3.50;99.90
10905;DHT22;5505;51.450;9.254;2022-12-07T07:45:21;3.30;99.90
10905;DHT22;5505;51.450;9.254;2022-12-07T07:48:08;3.30;99.90
10905;DHT22;5505;51.450;9.254;2022-12-07T07:50:57;3.40;99.90
10905;DHT22;5505;51.450;9.254;2022-12-07T07:53:43;3.30;99.90
10905;DHT22;5505;51.450;9.254;2022-12-07T07:56:30;3.30;99.90
10905;DHT22;5505;51.450;9.254;2022-12-07T07:59:17;3.90;99.90
10905;DHT22;5505;51.450;9.254;2022-12-07T08:02:04;3.30;99.90
10905;DHT22;5505;51.450;9.254;2022-12-07T08:04:50;3.30;99.90
10905;DHT22;5505;51.450;9.254;2022-12-07T08:07:39;3.30;99.90
10905;DHT22;5505;51.450;9.254;2022-12-07T08:10:26;3.30;99.90
10905;DHT22;5505;51.450;9.254;2022-12-07T08:13:15;3.20;99.90
10905;DHT22;5505;51.450;9.254;2022-12-07T08:16:04;3.20;99.90
10905;DHT22;5505;51.450;9.254;2022-12-07T08:18:51;3.20;99.90
10905;DHT22;5505;51.450;9.254;2022-12-07T08:21:38;3.20;99.90
10905;DHT22;5505;51.450;9.254;2022-12-07T08:24:26;3.20;99.90
10905;DHT22;5505;51.450;9.254;2022-12-07T08:27:13;3.20;99.90
10905;DHT22;5505;51.450;9.254;2022-12-07T08:29:59;3.20;99.90
10905;DHT22;5505;51.450;9.254;2022-12-07T08:32:47;5.00;99.90
10905;DHT22;5505;51.450;9.254;2022-12-07T08:35:34;3.20;99.90
10905;DHT22;5505;51.450;9.254;2022-12-07T08:38:21;3.20;99.90
10905;DHT22;5505;51.450;9.254;2022-12-07T08:41:10;3.30;99.90
10905;DHT22;5505;51.450;9.254;2022-12-07T08:43:56;3.70;99.90
10905;DHT22;5505;51.450;9.254;2022-12-07T08:46:46;3.40;99.90
10905;DHT22;5505;51.450;9.254;2022-12-07T08:49:38;3.40;99.90
10905;DHT22;5505;51.450;9.254;2022-12-07T08:52:25;3.50;99.90
10905;DHT22;5505;51.450;9.254;2022-12-07T08:55:12;3.50;99.90
10905;DHT22;5505;51.450;9.254;2022-12-07T08:58:03;3.50;99.90
10905;DHT22;5505;51.450;9.254;2022-12-07T09:00:50;3.50;99.90
10905;DHT22;5505;51.450;9.254;2022-12-07T09:03:37;3.50;99.90
10905;DHT22;5505;51.450;9.254;2022-12-07T09:06:23;3.50;99.90
10905;DHT22;5505;51.450;9.254;2022-12-07T09:09:11;3.50;99.90
10905;DHT22;5505;51.450;9.254;2022-12-07T09:11:59;3.50;99.90
10905;DHT22;5505;51.450;9.254;2022-12-07T09:14:47;3.50;99.90
10905;DHT22;5505;51.450;9.254;2022-12-07T09:17:34;3.50;99.90
10905;DHT22;5505;51.450;9.254;2022-12-07T09:20:21;3.50;99.90
10905;DHT22;5505;51.450;9.254;2022-12-07T09:23:08;3.50;99.90
10905;DHT22;5505;51.450;9.254;2022-12-07T09:25:58;3.50;99.90
10905;DHT22;5505;51.450;9.254;2022-12-07T09:28:45;3.40;99.90
10905;DHT22;5505;51.450;9.254;2022-12-07T09:31:35;3.40;99.90
10905;DHT22;5505;51.450;9.254;2022-12-07T09:34:22;3.40;99.90
10905;DHT22;5505;51.450;9.254;2022-12-07T09:37:09;3.40;99.90
10905;DHT22;5505;51.450;9.254;2022-12-07T09:39:56;3.40;99.90
10905;DHT22;5505;51.450;9.254;2022-12-07T09:42:46;3.40;99.90
10905;DHT22;5505;51.450;9.254;2022-12-07T09:45:35;3.40;99.90
10905;DHT22;5505;51.450;9.254;2022-12-07T09:48:29;3.50;99.90
10905;DHT22;5505;51.450;9.254;2022-12-07T09:51:18;3.50;99.90
10905;DHT22;5505;51.450;9.254;2022-12-07T09:54:05;3.50;99.90
10905;DHT22;5505;51.450;9.254;2022-12-07T09:56:53;3.60;99.90
10905;DHT22;5505;51.450;9.254;2022-12-07T09:59:39;3.60;99.90
10905;DHT22;5505;51.450;9.254;2022-12-07T10:02:35;3.60;99.90
10905;DHT22;5505;51.450;9.254;2022-12-07T10:05:26;3.70;99.90
10905;DHT22;5505;51.450;9.254;2022-12-07T10:08:14;3.70;99.90
10905;DHT22;5505;51.450;9.254;2022-12-07T10:11:03;3.70;99.90
10905;DHT22;5505;51.450;9.254;2022-12-07T10:14:11;3.70;99.90
10905;DHT22;5505;51.450;9.254;2022-12-07T10:16:58;3.70;99.90
10905;DHT22;5505;51.450;9.254;2022-12-07T10:19:45;3.80;99.90
10905;DHT22;5505;51.450;9.254;2022-12-07T10:22:33;3.80;99.90
10905;DHT22;5505;51.450;9.254;2022-12-07T10:25:22;3.80;99.90
10905;DHT22;5505;51.450;9.254;2022-12-07T10:28:13;3.80;99.90
10905;DHT22;5505;51.450;9.254;2022-12-07T10:31:02;3.80;99.90
10905;DHT22;5505;51.450;9.254;2022-12-07T10:33:52;3.70;99.90
10905;DHT22;5505;51.450;9.254;2022-12-07T10:36:39;3.70;99.90
10905;DHT22;5505;51.450;9.254;2022-12-07T10:39:27;3.60;99.90
10905;DHT22;5505;51.450;9.254;2022-12-07T10:42:17;3.60;99.90
10905;DHT22;5505;51.450;9.254;2022-12-07T10:45:09;3.60;99.90
10905;DHT22;5505;51.450;9.254;2022-12-07T10:48:06;3.60;99.90
10905;DHT22;5505;51.450;9.254;2022-12-07T10:51:01;3.60;99.90
10905;DHT22;5505;51.450;9.254;2022-12-07T10:53:57;3.50;99.90
10905;DHT22;5505;51.450;9.254;2022-12-07T11:00:18;3.50;99.90
10905;DHT22;5505;51.450;9.254;2022-12-07T11:03:24;3.50;99.90
10905;DHT22;5505;51.450;9.254;2022-12-07T11:06:20;3.50;99.90
10905;DHT22;5505;51.450;9.254;2022-12-07T11:09:43;3.60;99.90
10905;DHT22;5505;51.450;9.254;2022-12-07T11:12:43;3.60;99.90
10905;DHT22;5505;51.450;9.254;2022-12-07T11:15:47;3.70;99.90
10905;DHT22;5505;51.450;9.254;2022-12-07T11:18:46;3.80;99.90
10905;DHT22;5505;51.450;9.254;2022-12-07T11:21:42;3.80;99.90
10905;DHT22;5505;51.450;9.254;2022-12-07T11:24:38;6.50;99.90
10905;DHT22;5505;51.450;9.254;2022-12-07T11:27:35;4.00;99.90
10905;DHT22;5505;51.450;9.254;2022-12-07T11:30:25;4.00;99.90
10905;DHT22;5505;51.450;9.254;2022-12-07T11:33:20;4.10;99.90
10905;DHT22;5505;51.450;9.254;2022-12-07T11:36:17;4.10;99.90
10905;DHT22;5505;51.450;9.254;2022-12-07T11:39:16;4.10;99.90
10905;DHT22;5505;51.450;9.254;2022-12-07T11:42:09;4.10;99.90
10905;DHT22;5505;51.450;9.254;2022-12-07T11:45:01;4.10;99.90
10905;DHT22;5505;51.450;9.254;2022-12-07T11:47:54;4.10;99.90
10905;DHT22;5505;51.450;9.254;2022-12-07T11:50:45;4.10;99.90
10905;DHT22;5505;51.450;9.254;2022-12-07T11:53:37;4.20;99.90
10905;DHT22;5505;51.450;9.254;2022-12-07T11:56:26;4.10;99.90
10905;DHT22;5505;51.450;9.254;2022-12-07T11:59:17;4.10;99.90
10905;DHT22;5505;51.450;9.254;2022-12-07T12:02:13;4.50;99.90
10905;DHT22;5505;51.450;9.254;2022-12-07T12:05:07;4.10;99.90
10905;DHT22;5505;51.450;9.254;2022-12-07T12:08:06;4.20;99.90
10905;DHT22;5505;51.450;9.254;2022-12-07T12:11:03;4.20;99.90
10905;DHT22;5505;51.450;9.254;2022-12-07T12:14:11;4.30;99.90
10905;DHT22;5505;51.450;9.254;2022-12-07T12:17:19;4.30;99.90
10905;DHT22;5505;51.450;9.254;2022-12-07T12:20:19;4.30;99.90
10905;DHT22;5505;51.450;9.254;2022-12-07T12:23:12;4.20;99.90
10905;DHT22;5505;51.450;9.254;2022-12-07T12:26:02;4.20;99.90
10905;DHT22;5505;51.450;9.254;2022-12-07T12:28:54;4.20;99.90
10905;DHT22;5505;51.450;9.254;2022-12-07T12:31:47;4.00;99.90
10905;DHT22;5505;51.450;9.254;2022-12-07T12:34:39;4.00;99.90
10905;DHT22;5505;51.450;9.254;2022-12-07T12:37:47;4.00;99.90
10905;DHT22;5505;51.450;9.254;2022-12-07T12:40:43;4.00;99.90
10905;DHT22;5505;51.450;9.254;2022-12-07T12:43:47;4.00;99.90
10905;DHT22;5505;51.450;9.254;2022-12-07T12:46:48;3.90;99.90
10905;DHT22;5505;51.450;9.254;2022-12-07T12:49:38;5.40;99.90
10905;DHT22;5505;51.450;9.254;2022-12-07T12:52:50;3.90;99.90
10905;DHT22;5505;51.450;9.254;2022-12-07T12:56:11;3.90;99.90
10905;DHT22;5505;51.450;9.254;2022-12-07T12:59:26;4.00;99.90
10905;DHT22;5505;51.450;9.254;2022-12-07T13:02:20;4.00;99.90
10905;DHT22;5505;51.450;9.254;2022-12-07T13:05:19;4.00;99.90
10905;DHT22;5505;51.450;9.254;2022-12-07T13:08:15;4.00;99.90
10905;DHT22;5505;51.450;9.254;2022-12-07T13:11:18;4.40;99.90
10905;DHT22;5505;51.450;9.254;2022-12-07T13:18:00;4.00;99.90
10905;DHT22;5505;51.450;9.254;2022-12-07T13:20:53;4.00;99.90
10905;DHT22;5505;51.450;9.254;2022-12-07T13:23:55;4.00;99.90
10905;DHT22;5505;51.450;9.254;2022-12-07T13:26:43;4.30;99.90
10905;DHT22;5505;51.450;9.254;2022-12-07T13:29:36;4.00;99.90
10905;DHT22;5505;51.450;9.254;2022-12-07T13:32:25;4.00;99.90
10905;DHT22;5505;51.450;9.254;2022-12-07T13:35:33;4.00;99.90
10905;DHT22;5505;51.450;9.254;2022-12-07T13:38:24;4.00;99.90
10905;DHT22;5505;51.450;9.254;2022-12-07T13:41:13;3.90;99.90
10905;DHT22;5505;51.450;9.254;2022-12-07T13:44:07;3.90;99.90
10905;DHT22;5505;51.450;9.254;2022-12-07T13:47:05;3.80;99.90
10905;DHT22;5505;51.450;9.254;2022-12-07T13:49:56;3.80;99.90
10905;DHT22;5505;51.450;9.254;2022-12-07T13:52:44;3.80;99.90
10905;DHT22;5505;51.450;9.254;2022-12-07T13:55:31;3.80;99.90
10905;DHT22;5505;51.450;9.254;2022-12-07T13:58:19;3.80;99.90
10905;DHT22;5505;51.450;9.254;2022-12-07T14:01:07;3.80;99.90
10905;DHT22;5505;51.450;9.254;2022-12-07T14:03:54;5.40;99.90
10905;DHT22;5505;51.450;9.254;2022-12-07T14:06:48;3.80;99.90
10905;DHT22;5505;51.450;9.254;2022-12-07T14:09:36;3.80;99.90
10905;DHT22;5505;51.450;9.254;2022-12-07T14:12:23;3.80;99.90
10905;DHT22;5505;51.450;9.254;2022-12-07T14:15:20;3.70;99.90
10905;DHT22;5505;51.450;9.254;2022-12-07T14:18:27;3.70;99.90
10905;DHT22;5505;51.450;9.254;2022-12-07T14:21:16;4.20;99.90
10905;DHT22;5505;51.450;9.254;2022-12-07T14:24:16;3.60;99.90
10905;DHT22;5505;51.450;9.254;2022-12-07T14:27:17;3.60;99.90
10905;DHT22;5505;51.450;9.254;2022-12-07T14:30:05;3.50;99.90
10905;DHT22;5505;51.450;9.254;2022-12-07T14:32:55;3.50;99.90
10905;DHT22;5505;51.450;9.254;2022-12-07T14:35:44;4.00;99.90
10905;DHT22;5505;51.450;9.254;2022-12-07T14:38:31;3.60;99.90
10905;DHT22;5505;51.450;9.254;2022-12-07T14:41:22;3.50;99.90
10905;DHT22;5505;51.450;9.254;2022-12-07T14:44:26;3.60;99.90
10905;DHT22;5505;51.450;9.254;2022-12-07T14:47:14;3.80;99.90
10905;DHT22;5505;51.450;9.254;2022-12-07T14:50:01;3.50;99.90
10905;DHT22;5505;51.450;9.254;2022-12-07T14:52:51;5.00;99.90
10905;DHT22;5505;51.450;9.254;2022-12-07T14:55:42;3.60;99.90
10905;DHT22;5505;51.450;9.254;2022-12-07T14:58:29;3.60;99.90
10905;DHT22;5505;51.450;9.254;2022-12-07T15:01:16;3.60;99.90
10905;DHT22;5505;51.450;9.254;2022-12-07T15:04:03;5.20;99.90
10905;DHT22;5505;51.450;9.254;2022-12-07T15:06:56;3.60;99.90
10905;DHT22;5505;51.450;9.254;2022-12-07T15:09:45;3.60;99.90
10905;DHT22;5505;51.450;9.254;2022-12-07T15:12:31;3.60;99.90
10905;DHT22;5505;51.450;9.254;2022-12-07T15:15:18;3.60;99.90
10905;DHT22;5505;51.450;9.254;2022-12-07T15:18:05;3.50;99.90
10905;DHT22;5505;51.450;9.254;2022-12-07T15:20:52;3.50;99.90
10905;DHT22;5505;51.450;9.254;2022-12-07T15:23:38;3.50;99.90
10905;DHT22;5505;51.450;9.254;2022-12-07T15:26:27;3.50;99.90
10905;DHT22;5505;51.450;9.254;2022-12-07T15:29:13;3.50;99.90
10905;DHT22;5505;51.450;9.254;2022-12-07T15:32:01;3.50;99.90
10905;DHT22;5505;51.450;9.254;2022-12-07T15:34:48;3.40;99.90
10905;DHT22;5505;51.450;9.254;2022-12-07T15:37:36;3.40;99.90
10905;DHT22;5505;51.450;9.254;2022-12-07T15:40:24;3.40;99.90
10905;DHT22;5505;51.450;9.254;2022-12-07T15:43:12;3.30;99.90
10905;DHT22;5505;51.450;9.254;2022-12-07T15:46:12;3.30;99.90
10905;DHT22;5505;51.450;9.254;2022-12-07T15:49:02;3.30;99.90
10905;DHT22;5505;51.450;9.254;2022-12-07T15:51:49;3.30;99.90
10905;DHT22;5505;51.450;9.254;2022-12-07T15:54:36;3.20;99.90
10905;DHT22;5505;51.450;9.254;2022-12-07T15:57:23;3.20;99.90
10905;DHT22;5505;51.450;9.254;2022-12-07T16:00:12;3.20;99.90
10905;DHT22;5505;51.450;9.254;2022-12-07T16:02:59;3.20;99.90
10905;DHT22;5505;51.450;9.254;2022-12-07T16:05:48;3.20;99.90
10905;DHT22;5505;51.450;9.254;2022-12-07T16:08:35;3.20;99.90
10905;DHT22;5505;51.450;9.254;2022-12-07T16:11:22;3.20;99.90
10905;DHT22;5505;51.450;9.254;2022-12-07T16:14:09;3.20;99.90
10905;DHT22;5505;51.450;9.254;2022-12-07T16:16:57;3.10;99.90
10905;DHT22;5505;51.450;9.254;2022-12-07T16:19:44;3.10;99.90
10905;DHT22;5505;51.450;9.254;2022-12-07T16:22:31;3.10;99.90
10905;DHT22;5505;51.450;9.254;2022-12-07T16:25:18;3.10;99.90
10905;DHT22;5505;51.450;9.254;2022-12-07T16:28:04;3.10;99.90
10905;DHT22;5505;51.450;9.254;2022-12-07T16:31:00;3.10;99.90
10905;DHT22;5505;51.450;9.254;2022-12-07T16:33:49;3.00;99.90
10905;DHT22;5505;51.450;9.254;2022-12-07T16:36:36;3.00;99.90
10905;DHT22;5505;51.450;9.254;2022-12-07T16:39:22;3.00;99.90
10905;DHT22;5505;51.450;9.254;2022-12-07T16:42:10;3.10;99.90
10905;DHT22;5505;51.450;9.254;2022-12-07T16:44:56;3.00;99.90
10905;DHT22;5505;51.450;9.254;2022-12-07T16:47:43;3.00;99.90
10905;DHT22;5505;51.450;9.254;2022-12-07T16:50:31;3.00;99.90
10905;DHT22;5505;51.450;9.254;2022-12-07T16:53:18;3.10;99.90
10905;DHT22;5505;51.450;9.254;2022-12-07T16:56:10;2.90;99.90
10905;DHT22;5505;51.450;9.254;2022-12-07T16:58:57;2.90;99.90
10905;DHT22;5505;51.450;9.254;2022-12-07T17:01:44;4.60;99.90
10905;DHT22;5505;51.450;9.254;2022-12-07T17:04:31;2.90;99.90
10905;DHT22;5505;51.450;9.254;2022-12-07T17:07:19;2.90;99.90
10905;DHT22;5505;51.450;9.254;2022-12-07T17:10:07;2.90;99.90
10905;DHT22;5505;51.450;9.254;2022-12-07T17:12:54;2.90;99.90
10905;DHT22;5505;51.450;9.254;2022-12-07T17:15:41;2.90;99.90
10905;DHT22;5505;51.450;9.254;2022-12-07T17:18:28;2.90;99.90
10905;DHT22;5505;51.450;9.254;2022-12-07T17:21:15;2.90;99.90
10905;DHT22;5505;51.450;9.254;2022-12-07T17:24:05;2.90;99.90
10905;DHT22;5505;51.450;9.254;2022-12-07T17:26:52;2.90;99.90
10905;DHT22;5505;51.450;9.254;2022-12-07T17:29:39;2.90;99.90
10905;DHT22;5505;51.450;9.254;2022-12-07T17:32:26;2.90;99.90
10905;DHT22;5505;51.450;9.254;2022-12-07T17:35:13;2.40;99.90
10905;DHT22;5505;51.450;9.254;2022-12-07T17:37:59;3.00;99.90
10905;DHT22;5505;51.450;9.254;2022-12-07T17:40:48;2.90;99.90
10905;DHT22;5505;51.450;9.254;2022-12-07T17:43:34;2.90;99.90
10905;DHT22;5505;51.450;9.254;2022-12-07T17:46:21;2.90;99.90
10905;DHT22;5505;51.450;9.254;2022-12-07T17:49:08;2.90;99.90
10905;DHT22;5505;51.450;9.254;2022-12-07T17:51:55;2.90;99.90
10905;DHT22;5505;51.450;9.254;2022-12-07T17:54:59;2.90;99.90
10905;DHT22;5505;51.450;9.254;2022-12-07T17:57:47;2.90;99.90
10905;DHT22;5505;51.450;9.254;2022-12-07T18:00:34;2.90;99.90
10905;DHT22;5505;51.450;9.254;2022-12-07T18:03:23;2.90;99.90
10905;DHT22;5505;51.450;9.254;2022-12-07T18:06:10;2.90;99.90
10905;DHT22;5505;51.450;9.254;2022-12-07T18:08:57;2.80;99.90
10905;DHT22;5505;51.450;9.254;2022-12-07T18:11:44;2.80;99.90
10905;DHT22;5505;51.450;9.254;2022-12-07T18:14:32;2.80;99.90
10905;DHT22;5505;51.450;9.254;2022-12-07T18:17:19;3.00;99.90
10905;DHT22;5505;51.450;9.254;2022-12-07T18:20:07;2.80;99.90
10905;DHT22;5505;51.450;9.254;2022-12-07T18:22:53;2.80;99.90
10905;DHT22;5505;51.450;9.254;2022-12-07T18:25:46;2.80;99.90
10905;DHT22;5505;51.450;9.254;2022-12-07T18:28:33;2.80;99.90
10905;DHT22;5505;51.450;9.254;2022-12-07T18:31:21;2.80;99.90
10905;DHT22;5505;51.450;9.254;2022-12-07T18:34:11;2.80;99.90
10905;DHT22;5505;51.450;9.254;2022-12-07T18:36:58;2.90;99.90